createdAt,value
2019-03-04T00:02:33.334Z,5.08
2019-03-04T00:05:09.446Z,4.45
2019-03-04T00:07:46.905Z,4.62
2019-03-04T00:10:24.950Z,4.55
2019-03-04T00:12:59.811Z,4.22
2019-03-04T00:15:34.473Z,4.50
2019-03-04T00:18:11.114Z,4.50
2019-03-04T00:20:45.699Z,4.53
2019-03-04T00:23:20.530Z,3.80
2019-03-04T00:25:55.046Z,3.72
2019-03-04T00:28:29.842Z,3.95
2019-03-04T00:31:09.143Z,3.25
2019-03-04T00:33:44.316Z,3.58
2019-03-04T00:36:19.145Z,3.55
2019-03-04T00:38:55.013Z,3.45
2019-03-04T00:41:29.787Z,3.98
2019-03-04T00:44:04.623Z,3.90
2019-03-04T00:49:13.304Z,3.90
2019-03-04T00:51:48.016Z,3.02
2019-03-04T00:54:23.660Z,3.35
2019-03-04T00:56:58.487Z,3.70
2019-03-04T00:59:33.167Z,3.52
2019-03-04T01:02:08.607Z,3.47
2019-03-04T01:04:43.082Z,3.15
2019-03-04T01:07:17.656Z,3.55
2019-03-04T01:12:26.381Z,3.60
2019-03-04T01:15:01.051Z,3.20
2019-03-04T01:17:36.279Z,3.30
2019-03-04T01:20:14.625Z,3.22
2019-03-04T01:22:49.146Z,3.30
2019-03-04T01:25:23.608Z,3.35
2019-03-04T01:30:32.785Z,3.27
2019-03-04T01:33:07.328Z,3.15
2019-03-04T01:35:42.009Z,3.42
2019-03-04T01:38:16.552Z,3.40
2019-03-04T01:40:51.114Z,3.30
2019-03-04T01:43:25.670Z,3.60
2019-03-04T01:46:00.031Z,4.10
2019-03-04T01:48:34.586Z,3.77
2019-03-04T01:53:43.040Z,3.90
2019-03-04T01:56:17.667Z,3.90
2019-03-04T02:04:00.235Z,4.00
2019-03-04T02:06:35.072Z,3.60
2019-03-04T02:09:10.080Z,3.65
2019-03-04T02:11:46.001Z,3.80
2019-03-04T02:14:20.603Z,4.12
2019-03-04T02:16:55.098Z,3.90
2019-03-04T02:19:29.694Z,3.87
2019-03-04T02:22:04.128Z,3.80
2019-03-04T02:24:39.438Z,4.03
2019-03-04T02:27:14.304Z,4.00
2019-03-04T02:29:48.843Z,4.10
2019-03-04T02:32:23.523Z,4.10
2019-03-04T02:34:57.849Z,3.72
2019-03-04T02:37:32.427Z,4.03
2019-03-04T02:40:08.072Z,4.20
2019-03-04T02:42:42.666Z,4.05
2019-03-04T02:47:52.167Z,3.70
2019-03-04T02:50:27.049Z,4.03
2019-03-04T02:53:01.655Z,4.50
2019-03-04T02:58:09.985Z,3.90
2019-03-04T03:00:45.115Z,3.75
2019-03-04T03:03:22.021Z,4.47
2019-03-04T03:05:56.702Z,4.30
2019-03-04T03:08:31.319Z,4.47
2019-03-04T03:11:06.026Z,3.72
2019-03-04T03:13:40.426Z,3.70
2019-03-04T03:16:15.459Z,4.08
2019-03-04T03:21:24.134Z,4.55
2019-03-04T03:23:59.451Z,4.55
2019-03-04T03:29:08.288Z,3.87
2019-03-04T03:31:43.018Z,4.12
2019-03-04T03:34:17.587Z,5.03
2019-03-04T03:39:26.817Z,4.65
2019-03-04T03:42:01.880Z,4.35
2019-03-04T03:44:36.441Z,4.33
2019-03-04T03:47:11.058Z,4.30
2019-03-04T03:49:45.643Z,4.50
2019-03-04T03:52:20.046Z,4.40
2019-03-04T03:54:54.684Z,4.50
2019-03-04T04:00:04.332Z,4.90
2019-03-04T04:05:13.813Z,4.72
2019-03-04T04:07:51.539Z,5.47
2019-03-04T04:10:26.145Z,5.42
2019-03-04T04:13:01.651Z,5.22
2019-03-04T04:18:09.781Z,5.37
2019-03-04T04:20:44.619Z,5.25
2019-03-04T04:25:55.322Z,4.85
2019-03-04T04:28:31.643Z,5.42
2019-03-04T04:33:40.185Z,4.60
2019-03-04T04:36:14.653Z,4.47
2019-03-04T04:38:49.352Z,4.40
2019-03-04T04:41:23.834Z,4.60
2019-03-04T04:43:58.879Z,5.12
2019-03-04T04:46:55.664Z,5.10
2019-03-04T04:49:33.073Z,5.10
2019-03-04T04:52:07.819Z,4.72
2019-03-04T04:54:42.487Z,4.60
2019-03-04T04:57:17.045Z,4.80
2019-03-04T04:59:51.671Z,4.78
2019-03-04T05:05:00.123Z,4.30
2019-03-04T05:07:34.647Z,4.25
2019-03-04T05:15:22.156Z,4.85
2019-03-04T05:17:58.525Z,4.53
2019-03-04T05:20:33.140Z,4.30
2019-03-04T05:23:08.970Z,4.50
2019-03-04T05:25:43.706Z,4.90
2019-03-04T05:28:18.545Z,4.50
2019-03-04T05:30:53.565Z,4.40
2019-03-04T05:36:02.591Z,4.35
2019-03-04T05:41:11.875Z,4.70
2019-03-04T05:43:46.530Z,5.08
2019-03-04T05:46:21.612Z,4.62
2019-03-04T05:48:55.701Z,5.00
2019-03-04T05:51:31.908Z,4.22
2019-03-04T05:54:06.612Z,4.90
2019-03-04T05:59:19.794Z,4.72
2019-03-04T06:02:12.309Z,4.75
2019-03-04T06:04:47.820Z,5.22
2019-03-04T06:07:42.414Z,5.05
2019-03-04T06:10:16.981Z,5.08
2019-03-04T06:12:52.261Z,4.97
2019-03-04T06:15:30.118Z,4.97
2019-03-04T06:18:05.562Z,4.72
2019-03-04T06:23:15.419Z,4.58
2019-03-04T06:25:50.328Z,4.92
2019-03-04T06:28:25.083Z,5.15
2019-03-04T06:31:00.354Z,4.45
2019-03-04T06:33:35.672Z,4.97
2019-03-04T06:38:45.182Z,4.83
2019-03-04T06:41:19.978Z,4.30
2019-03-04T06:43:54.651Z,4.60
2019-03-04T06:46:29.080Z,4.85
2019-03-04T06:49:04.147Z,5.47
2019-03-04T06:51:45.769Z,4.97
2019-03-04T06:55:30.739Z,5.87
2019-03-04T06:58:05.313Z,5.87
2019-03-04T07:01:08.150Z,5.15
2019-03-04T07:04:27.908Z,6.83
2019-03-04T07:07:02.668Z,5.67
2019-03-04T07:12:10.814Z,6.08
2019-03-04T07:14:45.525Z,6.17
2019-03-04T07:17:20.147Z,6.12
2019-03-04T07:20:10.115Z,6.53
2019-03-04T07:22:44.991Z,5.62
2019-03-04T07:25:19.693Z,5.67
2019-03-04T07:30:28.418Z,5.83
2019-03-04T07:35:39.123Z,6.40
2019-03-04T07:38:47.746Z,5.35
2019-03-04T07:41:22.122Z,5.87
2019-03-04T07:43:56.722Z,6.05
2019-03-04T07:46:31.274Z,5.15
2019-03-04T07:49:06.310Z,5.47
2019-03-04T07:51:40.811Z,5.28
2019-03-04T07:54:15.512Z,4.67
2019-03-04T07:56:50.021Z,4.78
2019-03-04T07:59:25.560Z,4.37
2019-03-04T08:02:00.575Z,3.58
2019-03-04T08:07:49.517Z,3.35
2019-03-04T08:11:09.488Z,2.30
2019-03-04T08:13:52.955Z,2.00
2019-03-04T08:16:27.585Z,1.80
2019-03-04T08:21:35.805Z,1.60
2019-03-04T08:24:10.554Z,1.62
2019-03-04T08:29:19.104Z,1.60
2019-03-04T08:31:53.690Z,1.77
2019-03-04T08:34:31.296Z,1.77
2019-03-04T08:37:06.361Z,1.50
2019-03-04T08:39:41.059Z,1.37
2019-03-04T08:42:15.868Z,1.20
2019-03-04T08:44:53.529Z,1.00
2019-03-04T08:52:36.525Z,0.60
2019-03-04T08:55:13.673Z,0.57
2019-03-04T08:57:48.136Z,0.50
2019-03-04T09:00:27.066Z,0.47
2019-03-04T09:03:02.580Z,0.40
2019-03-04T09:05:37.078Z,0.57
2019-03-04T09:08:11.628Z,0.50
2019-03-04T09:13:20.612Z,0.42
2019-03-04T09:18:32.058Z,0.50
2019-03-04T09:21:07.344Z,0.60
2019-03-04T09:23:42.317Z,0.40
2019-03-04T09:26:17.125Z,0.98
2019-03-04T09:28:52.384Z,0.80
2019-03-04T09:31:27.395Z,0.60
2019-03-04T09:34:02.303Z,0.47
2019-03-04T09:36:37.011Z,0.60
2019-03-04T09:39:16.522Z,0.40
2019-03-04T09:41:52.977Z,0.60
2019-03-04T09:44:27.948Z,0.50
2019-03-04T09:47:02.645Z,0.30
2019-03-04T09:49:37.325Z,0.60
2019-03-04T09:52:11.762Z,0.30
2019-03-04T09:54:46.677Z,0.50
2019-03-04T09:57:21.310Z,0.60
2019-03-04T09:59:56.065Z,0.50
2019-03-04T10:02:43.666Z,0.50
2019-03-04T10:06:13.302Z,0.55
2019-03-04T10:09:30.603Z,0.60
2019-03-04T10:16:05.157Z,0.57
2019-03-04T10:19:59.320Z,0.60
2019-03-04T10:23:48.735Z,0.68
2019-03-04T10:28:08.095Z,0.62
2019-03-04T10:32:27.523Z,0.90
2019-03-04T10:39:17.752Z,0.50
2019-03-04T10:43:16.331Z,0.53
2019-03-04T10:46:55.875Z,0.53
2019-03-04T10:49:33.839Z,0.68
2019-03-04T10:52:08.581Z,0.80
2019-03-04T10:57:18.435Z,0.60
2019-03-04T10:59:53.180Z,0.90
2019-03-04T11:02:28.306Z,0.88
2019-03-04T11:05:03.137Z,1.00
2019-03-04T11:07:38.517Z,0.90
2019-03-04T11:10:57.827Z,0.85
2019-03-04T11:13:32.317Z,0.70
2019-03-04T11:16:07.977Z,1.00
2019-03-04T11:18:42.657Z,0.80
2019-03-04T11:21:17.675Z,1.30
2019-03-04T11:23:52.731Z,1.10
2019-03-04T11:26:27.603Z,1.07
2019-03-04T11:34:12.465Z,1.00
2019-03-04T11:36:47.547Z,0.90
2019-03-04T11:40:02.607Z,1.43
2019-03-04T11:42:38.161Z,1.10
2019-03-04T11:45:16.092Z,1.00
2019-03-04T11:47:50.979Z,1.17
2019-03-04T11:50:25.692Z,1.80
2019-03-04T11:53:00.875Z,1.20
2019-03-04T11:55:35.621Z,1.45
2019-03-04T11:58:10.521Z,1.30
2019-03-04T12:03:24.326Z,1.10
2019-03-04T12:05:58.897Z,1.52
2019-03-04T12:08:33.804Z,1.02
2019-03-04T12:11:08.522Z,1.25
2019-03-04T12:13:43.838Z,1.10
2019-03-04T12:16:18.831Z,1.27
2019-03-04T12:18:53.592Z,0.88
2019-03-04T12:24:03.066Z,1.40
2019-03-04T12:26:38.540Z,1.45
2019-03-04T12:32:02.672Z,1.52
2019-03-04T12:34:37.319Z,1.60
2019-03-04T12:37:12.072Z,1.37
2019-03-04T12:39:47.069Z,1.17
2019-03-04T12:42:22.054Z,1.30
2019-03-04T12:44:58.050Z,0.80
2019-03-04T12:47:32.802Z,1.20
2019-03-04T12:50:18.931Z,1.12
2019-03-04T12:52:55.557Z,1.37
2019-03-04T12:58:47.197Z,1.50
2019-03-04T13:01:41.571Z,1.45
2019-03-04T13:04:24.288Z,1.30
2019-03-04T13:07:05.185Z,1.30
2019-03-04T13:09:50.549Z,1.30
2019-03-04T13:12:37.064Z,1.52
2019-03-04T13:15:27.447Z,1.50
2019-03-04T13:18:09.556Z,1.25
2019-03-04T13:21:04.605Z,1.45
2019-03-04T13:23:47.407Z,1.42
2019-03-04T13:26:32.155Z,1.15
2019-03-04T13:29:17.323Z,1.62
2019-03-04T13:32:08.161Z,1.47
2019-03-04T13:34:50.067Z,1.32
2019-03-04T13:37:43.335Z,2.05
2019-03-04T13:40:38.250Z,1.02
2019-03-04T13:46:30.411Z,1.40
2019-03-04T13:52:21.336Z,1.40
2019-03-04T13:55:25.076Z,1.35
2019-03-04T13:58:17.671Z,1.32
2019-03-04T14:01:06.951Z,1.20
2019-03-04T14:04:00.615Z,1.20
2019-03-04T14:06:45.012Z,1.50
2019-03-04T14:12:11.052Z,1.30
2019-03-04T14:15:00.143Z,1.32
2019-03-04T14:17:52.991Z,1.52
2019-03-04T14:20:42.487Z,1.15
2019-03-04T14:23:28.481Z,1.40
2019-03-04T14:26:17.966Z,1.12
2019-03-04T14:29:25.047Z,1.20
2019-03-04T14:32:10.936Z,1.10
2019-03-04T14:34:58.664Z,1.20
2019-03-04T14:37:49.381Z,1.15
2019-03-04T14:40:38.993Z,1.00
2019-03-04T14:46:29.351Z,1.10
2019-03-04T14:49:20.065Z,1.10
2019-03-04T14:52:09.323Z,1.00
2019-03-04T14:57:40.930Z,1.25
2019-03-04T15:00:35.345Z,1.42
2019-03-04T15:03:23.991Z,1.22
2019-03-04T15:06:07.152Z,1.00
2019-03-04T15:08:59.072Z,1.27
2019-03-04T15:11:42.365Z,1.20
2019-03-04T15:14:31.361Z,0.93
2019-03-04T15:17:21.237Z,1.42
2019-03-04T15:22:55.070Z,1.32
2019-03-04T15:25:31.247Z,1.45
2019-03-04T15:28:15.892Z,1.20
2019-03-04T15:30:55.318Z,1.98
2019-03-04T15:33:30.496Z,1.57
2019-03-04T15:36:11.302Z,1.80
2019-03-04T15:38:45.975Z,1.20
2019-03-04T15:41:25.534Z,1.17
2019-03-04T15:44:10.629Z,1.55
2019-03-04T15:46:52.226Z,1.70
2019-03-04T15:49:44.361Z,1.50
2019-03-04T17:19:26.537Z,0.60
2019-03-04T17:29:46.095Z,0.80
2019-03-04T17:32:23.024Z,0.62
2019-03-04T17:34:58.026Z,0.68
2019-03-04T17:37:34.442Z,0.78
2019-03-04T17:40:11.838Z,0.90
2019-03-04T17:42:46.858Z,0.60
2019-03-04T17:45:24.281Z,0.70
2019-03-04T17:47:59.468Z,0.62
2019-03-04T17:50:35.946Z,0.47
2019-03-04T17:53:10.671Z,0.50
2019-03-04T17:55:45.505Z,0.80
2019-03-04T17:58:20.326Z,0.60
2019-03-04T18:00:55.421Z,0.70
2019-03-04T18:03:30.304Z,0.57
2019-03-04T18:06:05.070Z,0.50
2019-03-04T18:08:40.100Z,1.15
2019-03-04T18:11:15.048Z,0.72
2019-03-04T18:13:50.105Z,0.60
2019-03-04T18:16:25.092Z,0.78
2019-03-04T18:18:59.644Z,0.60
2019-03-04T18:24:10.171Z,0.57
2019-03-04T18:27:11.542Z,0.88
2019-03-04T18:33:45.674Z,0.85
2019-03-04T18:37:20.301Z,0.60
2019-03-04T18:41:20.596Z,0.45
2019-03-04T18:44:39.307Z,0.60
2019-03-04T18:48:10.321Z,1.00
2019-03-04T18:50:45.519Z,0.90
2019-03-04T18:53:20.651Z,1.20
2019-03-04T18:55:55.315Z,1.30
2019-03-04T18:58:29.803Z,1.82
2019-03-04T19:01:06.150Z,0.98
2019-03-04T19:03:41.501Z,0.72
2019-03-04T19:06:16.437Z,0.90
2019-03-04T19:08:51.442Z,0.78
2019-03-04T19:11:26.201Z,0.90
2019-03-04T19:14:00.812Z,1.05
2019-03-04T19:16:36.324Z,1.57
2019-03-04T19:19:11.141Z,0.80
2019-03-04T19:21:46.314Z,1.50
2019-03-04T19:24:21.153Z,3.20
2019-03-04T19:26:56.122Z,2.22
2019-03-04T19:29:32.126Z,0.98
2019-03-04T19:32:07.040Z,1.40
2019-03-04T19:34:42.220Z,1.00
2019-03-04T19:37:17.051Z,0.90
2019-03-04T19:39:52.606Z,0.80
2019-03-04T19:45:01.322Z,1.30
2019-03-04T19:47:40.387Z,1.27
2019-03-04T19:50:17.121Z,3.85
2019-03-04T19:52:52.049Z,1.37
2019-03-04T19:55:27.145Z,7.35
2019-03-04T19:58:02.553Z,2.72
2019-03-04T20:00:37.963Z,1.32
2019-03-04T20:03:13.033Z,1.20
2019-03-04T20:05:48.165Z,0.70
2019-03-04T20:08:23.516Z,0.90
2019-03-04T20:10:58.330Z,1.20
2019-03-04T20:13:33.304Z,0.93
2019-03-04T20:16:09.674Z,0.70
2019-03-04T20:18:44.603Z,0.82
2019-03-04T20:23:53.639Z,0.80
2019-03-04T20:29:02.592Z,0.80
2019-03-04T20:36:46.860Z,0.40
2019-03-04T20:39:22.830Z,0.60
2019-03-04T20:41:57.583Z,0.53
2019-03-04T20:47:06.536Z,0.50
2019-03-04T20:49:41.938Z,0.98
2019-03-04T20:52:17.169Z,0.50
2019-03-04T20:54:52.217Z,0.50
2019-03-04T20:57:27.319Z,0.60
2019-03-04T21:00:02.083Z,0.60
2019-03-04T21:02:38.756Z,0.55
2019-03-04T21:05:17.236Z,1.02
2019-03-04T21:07:52.781Z,0.85
2019-03-04T21:10:28.568Z,0.95
2019-03-04T21:13:13.303Z,1.10
2019-03-04T21:15:48.745Z,0.93
2019-03-04T21:18:24.321Z,1.90
2019-03-04T21:20:59.724Z,4.47
2019-03-04T21:23:34.587Z,3.98
2019-03-04T21:26:24.317Z,0.60
2019-03-04T21:30:00.065Z,0.82
2019-03-04T21:33:34.703Z,0.80
2019-03-04T21:36:50.506Z,1.00
2019-03-04T21:39:32.741Z,2.62
2019-03-04T21:43:03.824Z,1.02
2019-03-04T21:47:10.107Z,0.90
2019-03-04T21:49:54.057Z,0.98
2019-03-04T21:53:12.457Z,1.30
2019-03-04T21:56:36.245Z,1.30
2019-03-04T21:59:12.126Z,1.10
2019-03-04T22:02:16.438Z,1.20
2019-03-04T22:04:51.563Z,1.25
2019-03-04T22:07:26.459Z,1.20
2019-03-04T22:10:01.681Z,1.30
2019-03-04T22:12:37.873Z,1.32
2019-03-04T22:15:13.341Z,1.25
2019-03-04T22:17:48.333Z,0.82
2019-03-04T22:20:23.179Z,1.10
2019-03-04T22:22:58.393Z,1.05
2019-03-04T22:25:32.836Z,1.05
2019-03-04T22:28:07.470Z,1.60
2019-03-04T22:30:42.773Z,1.70
2019-03-04T22:33:17.715Z,1.67
2019-03-04T22:35:52.674Z,1.20
2019-03-04T22:41:01.741Z,1.00
2019-03-04T22:43:36.649Z,1.45
2019-03-04T22:48:45.532Z,1.25
2019-03-04T22:51:20.502Z,1.10
2019-03-04T22:53:55.662Z,0.90
2019-03-04T22:59:04.898Z,0.90
2019-03-04T23:01:54.262Z,1.00
2019-03-04T23:07:49.170Z,1.00
2019-03-04T23:10:45.842Z,0.80
2019-03-04T23:14:00.651Z,0.90
2019-03-04T23:19:09.057Z,1.05
2019-03-04T23:21:43.789Z,1.15
2019-03-04T23:24:18.558Z,1.07
2019-03-04T23:32:01.361Z,1.17
2019-03-04T23:34:37.524Z,1.50
2019-03-04T23:37:12.335Z,1.10
2019-03-04T23:39:47.024Z,1.22
2019-03-04T23:42:21.772Z,0.90
2019-03-04T23:44:56.792Z,1.40
2019-03-04T23:47:32.820Z,1.00
2019-03-04T23:50:18.540Z,1.40
2019-03-04T23:52:53.155Z,0.95
2019-03-04T23:55:28.209Z,1.00
2019-03-04T23:58:03.599Z,1.10
